Time;durP1;ratioP1;P1;durP2;ratioP2;P2;SDS_P1;SDS_P2;PMS_P1;PMS_P2;Temp;Humidity;BMP_temperature;BMP_pressure;BME280_temperature;BME280_humidity;BME280_pressure;Samples;Min_cycle;Max_cycle;Signal;HPM_P1;HPM_P2
2021/04/25 00:01:25;;;;;;;15.20;5.60;;;;;;;6.10;79.34;96557.75;5058061;28;20256;-68
2021/04/25 00:03:51;;;;;;;13.43;5.67;;;;;;;6.15;79.28;96547.69;5059096;28;20209;-68
2021/04/25 00:06:17;;;;;;;13.97;5.63;;;;;;;6.00;80.08;96550.91;5057543;28;20207;-69
2021/04/25 00:08:43;;;;;;;12.43;5.60;;;;;;;6.01;80.19;96551.69;5058180;28;20227;-68
2021/04/25 00:11:09;;;;;;;9.57;5.13;;;;;;;6.03;79.76;96552.41;5057206;28;20209;-69
2021/04/25 00:13:35;;;;;;;12.33;5.40;;;;;;;5.89;79.80;96547.63;5058599;28;20824;-68
2021/04/25 00:16:01;;;;;;;11.67;5.27;;;;;;;5.79;80.28;96557.25;5056845;28;20200;-68
2021/04/25 00:18:28;;;;;;;10.93;5.37;;;;;;;5.84;79.94;96549.81;5058163;28;20285;-71
2021/04/25 00:20:54;;;;;;;11.77;5.87;;;;;;;5.80;79.42;96543.22;5054432;28;20251;-69
2021/04/25 00:23:20;;;;;;;11.33;5.47;;;;;;;5.73;79.97;96542.94;5057594;28;20201;-69
2021/04/25 00:25:46;;;;;;;11.57;5.67;;;;;;;5.80;80.08;96544.03;5057379;28;20575;-70
2021/04/25 00:28:12;;;;;;;12.37;5.47;;;;;;;5.77;80.05;96543.53;5058436;28;20220;-68
2021/04/25 00:30:38;;;;;;;14.40;5.93;;;;;;;5.81;80.46;96539.66;5056977;28;20738;-70
2021/04/25 00:33:04;;;;;;;13.27;5.90;;;;;;;5.67;79.93;96540.88;5057816;28;20208;-68
2021/04/25 00:35:31;;;;;;;15.77;5.83;;;;;;;5.68;79.66;96534.69;5057285;28;20605;-68
2021/04/25 00:37:57;;;;;;;14.40;5.73;;;;;;;5.74;79.41;96531.53;5058219;28;20228;-68
2021/04/25 00:40:23;;;;;;;14.00;5.73;;;;;;;5.77;79.95;96539.09;5057914;28;20216;-68
2021/04/25 00:42:50;;;;;;;13.83;5.77;;;;;;;5.73;79.57;96534.28;5057447;28;20208;-68
2021/04/25 00:45:17;;;;;;;10.50;5.30;;;;;;;5.65;79.43;96528.91;5057684;28;20200;-68
2021/04/25 00:47:46;;;;;;;13.70;6.27;;;;;;;5.65;79.95;96528.91;5056159;28;20224;-68
2021/04/25 00:50:13;;;;;;;14.53;6.20;;;;;;;5.69;80.59;96519.81;5057069;28;20208;-68
2021/04/25 00:52:43;;;;;;;15.03;6.03;;;;;;;5.71;80.18;96523.94;5057135;28;20694;-69
2021/04/25 00:55:11;;;;;;;12.43;5.90;;;;;;;5.75;79.71;96524.50;5056576;28;20222;-70
2021/04/25 00:57:37;;;;;;;17.10;6.50;;;;;;;5.87;79.47;96523.38;5056794;28;21145;-68
2021/04/25 01:00:05;;;;;;;15.37;6.23;;;;;;;6.02;78.07;96529.81;5057709;28;20635;-68
2021/04/25 01:02:31;;;;;;;14.53;5.67;;;;;;;6.14;78.52;96527.72;5056875;28;20239;-69
2021/04/25 01:04:57;;;;;;;15.67;5.83;;;;;;;6.29;77.48;96521.03;5057238;28;20204;-68
2021/04/25 01:07:23;;;;;;;13.83;6.30;;;;;;;6.31;76.91;96521.75;5056426;28;20258;-69
2021/04/25 01:09:50;;;;;;;12.27;6.07;;;;;;;6.43;76.86;96523.19;5056835;28;20204;-70
2021/04/25 01:12:16;;;;;;;13.13;5.57;;;;;;;6.45;76.47;96521.25;5056793;28;20201;-68
2021/04/25 01:14:42;;;;;;;13.77;5.93;;;;;;;6.52;76.04;96531.94;5057113;28;20227;-68
2021/04/25 01:17:08;;;;;;;13.73;5.77;;;;;;;6.58;75.46;96534.00;5056395;28;20729;-69
2021/04/25 01:19:34;;;;;;;14.10;6.03;;;;;;;6.65;75.04;96532.47;5053174;28;20223;-68
2021/04/25 01:22:01;;;;;;;14.83;6.30;;;;;;;6.67;74.56;96539.19;5056424;28;20228;-68
2021/04/25 01:24:27;;;;;;;12.17;5.53;;;;;;;6.62;75.31;96536.19;5057253;28;20196;-69
2021/04/25 01:26:53;;;;;;;15.47;5.87;;;;;;;6.62;75.40;96544.03;5056114;28;20211;-68
2021/04/25 01:29:19;;;;;;;11.27;5.83;;;;;;;6.63;75.45;96532.56;5057242;28;20209;-70
2021/04/25 01:31:46;;;;;;;15.33;6.13;;;;;;;6.69;75.51;96537.25;5057369;28;20200;-69
2021/04/25 01:34:12;;;;;;;16.77;6.33;;;;;;;6.71;75.32;96533.50;5056765;28;21183;-69
2021/04/25 01:36:38;;;;;;;15.03;6.23;;;;;;;6.61;75.33;96536.34;5056571;28;20205;-70
2021/04/25 01:39:06;;;;;;;13.83;6.40;;;;;;;6.59;75.64;96525.19;5056535;28;20222;-69
2021/04/25 01:41:32;;;;;;;19.77;6.37;;;;;;;6.46;75.67;96532.56;5056426;28;20221;-70
2021/04/25 01:43:58;;;;;;;17.50;6.30;;;;;;;6.30;77.00;96532.31;5056599;28;20204;-69
2021/04/25 01:46:24;;;;;;;12.63;6.13;;;;;;;6.37;76.97;96539.47;5057048;28;20204;-70
2021/04/25 01:48:50;;;;;;;16.57;6.30;;;;;;;6.34;76.82;96531.06;5056542;28;20226;-70
2021/04/25 01:51:16;;;;;;;14.63;6.43;;;;;;;6.22;77.46;96538.31;5056299;28;20609;-69
2021/04/25 01:53:42;;;;;;;13.60;6.53;;;;;;;6.22;77.61;96538.31;5056776;28;20204;-71
2021/04/25 01:56:09;;;;;;;13.60;6.77;;;;;;;6.16;77.69;96541.47;5056579;28;20583;-68
2021/04/25 01:58:35;;;;;;;16.97;6.00;;;;;;;6.13;78.11;96540.94;5055825;28;20705;-68
2021/04/25 02:01:01;;;;;;;15.97;6.97;;;;;;;6.09;78.76;96539.56;5057107;28;20220;-70
2021/04/25 02:03:27;;;;;;;17.37;6.23;;;;;;;6.16;78.09;96548.50;5057044;28;20212;-71
2021/04/25 02:05:54;;;;;;;13.87;6.27;;;;;;;6.20;77.41;96539.41;5055526;28;20235;-69
2021/04/25 02:08:20;;;;;;;15.23;5.67;;;;;;;6.22;77.56;96545.31;5056725;28;20928;-71
2021/04/25 02:10:47;;;;;;;14.93;6.27;;;;;;;6.01;77.02;96546.47;5056139;28;20215;-68
2021/04/25 02:13:14;;;;;;;10.57;5.67;;;;;;;5.85;77.87;96541.84;5055846;28;20197;-68
2021/04/25 02:15:40;;;;;;;11.70;6.03;;;;;;;5.85;78.65;96543.63;5055557;28;20207;-68
2021/04/25 02:18:07;;;;;;;14.73;6.17;;;;;;;5.70;79.44;96545.84;5056767;28;20217;-68
2021/04/25 02:20:34;;;;;;;11.83;5.67;;;;;;;5.62;79.22;96550.13;5053568;28;20200;-69
2021/04/25 02:23:00;;;;;;;13.63;6.10;;;;;;;5.46;79.47;96545.44;5056220;28;21100;-68
2021/04/25 02:25:26;;;;;;;15.07;6.20;;;;;;;5.40;80.40;96547.78;5055451;28;20689;-68
2021/04/25 02:27:53;;;;;;;15.23;5.27;;;;;;;5.43;80.74;96556.19;5056374;28;20594;-67
2021/04/25 02:30:22;;;;;;;11.70;5.87;;;;;;;5.21;81.75;96550.41;5055771;28;20200;-70
2021/04/25 02:32:49;;;;;;;13.63;5.57;;;;;;;4.95;83.63;96554.50;5057597;28;20204;-69
2021/04/25 02:35:17;;;;;;;13.50;6.47;;;;;;;5.15;83.59;96555.34;5059653;28;20192;-68
2021/04/25 02:37:43;;;;;;;19.63;6.90;;;;;;;5.17;84.42;96563.88;5059814;28;20235;-70
2021/04/25 02:40:12;;;;;;;17.87;6.80;;;;;;;5.41;84.53;96557.28;5059873;28;20243;-70
2021/04/25 02:42:39;;;;;;;13.90;6.70;;;;;;;5.54;84.14;96552.59;5059432;28;20220;-69
2021/04/25 02:45:07;;;;;;;16.70;8.07;;;;;;;5.68;84.12;96552.19;5059140;28;20200;-70
2021/04/25 02:47:34;;;;;;;20.27;7.63;;;;;;;5.73;84.55;96556.00;5060213;28;20269;-68
2021/04/25 02:50:00;;;;;;;20.30;7.40;;;;;;;5.89;85.05;96548.44;5056969;28;20216;-70
2021/04/25 02:52:26;;;;;;;21.90;8.20;;;;;;;5.98;84.95;96549.38;5059300;28;20201;-70
2021/04/25 02:54:53;;;;;;;21.93;8.30;;;;;;;6.14;84.51;96543.41;5060152;28;20220;-68
2021/04/25 02:57:19;;;;;;;18.10;7.40;;;;;;;6.16;84.67;96548.50;5059402;28;20213;-70
2021/04/25 02:59:46;;;;;;;20.13;8.17;;;;;;;6.25;84.13;96539.78;5060160;28;20205;-70
2021/04/25 03:02:12;;;;;;;17.47;8.43;;;;;;;6.34;83.91;96539.75;5058804;28;20221;-68
2021/04/25 03:04:38;;;;;;;18.00;7.93;;;;;;;6.44;83.39;96534.47;5060025;28;20206;-71
2021/04/25 03:07:05;;;;;;;18.23;7.97;;;;;;;6.37;83.67;96544.69;5058986;28;20248;-69
2021/04/25 03:09:31;;;;;;;18.63;7.90;;;;;;;6.33;83.88;96535.50;5059280;28;20215;-70
2021/04/25 03:11:57;;;;;;;18.43;8.20;;;;;;;6.27;84.61;96532.63;5059093;28;20582;-68
2021/04/25 03:14:23;;;;;;;16.87;7.93;;;;;;;6.27;83.66;96527.41;5059626;28;20205;-68
2021/04/25 03:16:49;;;;;;;16.73;7.93;;;;;;;6.16;84.00;96536.25;5057758;28;20205;-71
2021/04/25 03:19:15;;;;;;;18.47;8.23;;;;;;;6.29;84.80;96533.31;5057749;28;20212;-70
2021/04/25 03:21:42;;;;;;;21.50;8.20;;;;;;;6.05;83.17;96533.78;5058758;28;20224;-69
2021/04/25 03:24:09;;;;;;;15.57;7.87;;;;;;;5.90;84.93;96528.34;5059141;28;20204;-69
2021/04/25 03:26:35;;;;;;;16.10;7.40;;;;;;;5.94;84.50;96529.72;5058179;28;20205;-69
2021/04/25 03:29:01;;;;;;;18.13;8.10;;;;;;;5.77;84.33;96525.22;5058685;28;20235;-69
2021/04/25 03:31:27;;;;;;;17.70;7.10;;;;;;;5.77;84.09;96527.84;5058481;28;20196;-69
2021/04/25 03:33:53;;;;;;;16.57;7.60;;;;;;;5.68;85.63;96529.47;5059285;28;20249;-69
2021/04/25 03:36:19;;;;;;;13.83;7.60;;;;;;;5.60;85.89;96526.72;5058089;28;20201;-71
2021/04/25 03:38:46;;;;;;;16.67;7.60;;;;;;;5.65;85.15;96526.28;5058866;28;20228;-69
2021/04/25 03:41:12;;;;;;;17.23;7.07;;;;;;;5.53;84.86;96523.00;5058625;28;20224;-68
2021/04/25 03:43:38;;;;;;;15.03;7.00;;;;;;;5.49;83.28;96528.66;5058842;28;20196;-69
2021/04/25 03:46:04;;;;;;;17.13;7.63;;;;;;;5.28;85.40;96525.38;5057402;28;20663;-70
2021/04/25 03:48:30;;;;;;;15.93;7.47;;;;;;;5.22;86.02;96525.09;5058458;28;20273;-69
2021/04/25 03:50:56;;;;;;;14.03;7.07;;;;;;;5.22;86.55;96535.53;5058900;28;20204;-68
2021/04/25 03:53:22;;;;;;;19.03;7.40;;;;;;;5.21;84.96;96536.53;5058734;28;20211;-69
2021/04/25 03:55:49;;;;;;;17.07;6.90;;;;;;;5.13;84.21;96539.81;5058100;28;20652;-68
2021/04/25 03:58:15;;;;;;;17.27;8.33;;;;;;;4.93;87.54;96540.75;5058403;28;20673;-69
2021/04/25 04:00:41;;;;;;;20.40;9.00;;;;;;;4.99;88.28;96540.22;5059044;28;20201;-68
2021/04/25 04:03:07;;;;;;;18.57;7.73;;;;;;;4.91;87.75;96537.47;5058155;28;20202;-68
2021/04/25 04:05:33;;;;;;;16.80;8.20;;;;;;;5.00;89.16;96533.19;5057810;28;20671;-68
2021/04/25 04:07:59;;;;;;;19.53;8.70;;;;;;;4.98;89.25;96540.34;5059088;28;20277;-69
2021/04/25 04:10:25;;;;;;;18.13;8.60;;;;;;;4.94;90.12;96536.38;5057785;28;20548;-69
2021/04/25 04:12:52;;;;;;;19.97;8.90;;;;;;;4.98;91.13;96540.34;5058236;28;20204;-70
2021/04/25 04:15:18;;;;;;;15.43;8.23;;;;;;;5.01;89.39;96542.69;5058506;28;20211;-68
2021/04/25 04:17:44;;;;;;;16.53;8.03;;;;;;;5.13;88.05;96537.22;5058640;28;20297;-68
2021/04/25 04:20:12;;;;;;;16.17;7.40;;;;;;;5.04;86.46;96548.47;5055863;28;20234;-68
2021/04/25 04:22:38;;;;;;;14.83;7.37;;;;;;;5.05;86.86;96546.69;5058240;28;20235;-68
2021/04/25 04:25:04;;;;;;;17.17;7.83;;;;;;;5.01;86.09;96551.34;5057714;28;20211;-70
2021/04/25 04:27:31;;;;;;;15.57;8.50;;;;;;;4.85;88.06;96553.66;5057930;28;20265;-71
2021/04/25 04:29:57;;;;;;;18.63;7.90;;;;;;;4.80;87.41;96559.41;5057777;28;20215;-68
2021/04/25 04:32:24;;;;;;;15.97;7.77;;;;;;;4.81;87.54;96561.88;5058067;28;20203;-68
2021/04/25 04:34:50;;;;;;;17.83;8.03;;;;;;;4.79;89.53;96569.03;5057612;28;20197;-68
2021/04/25 04:37:16;;;;;;;25.43;9.53;;;;;;;4.82;91.72;96577.44;5057120;28;20224;-68
2021/04/25 04:39:42;;;;;;;19.17;8.87;;;;;;;4.89;91.76;96573.31;5057274;28;20693;-68
2021/04/25 04:42:08;;;;;;;24.87;9.83;;;;;;;5.06;91.86;96574.44;5057373;28;20221;-68
2021/04/25 04:44:34;;;;;;;22.73;9.73;;;;;;;5.14;91.97;96574.59;5057441;28;20209;-70
2021/04/25 04:47:01;;;;;;;25.27;9.80;;;;;;;5.24;91.52;96575.44;5057002;28;20254;-68
2021/04/25 04:49:27;;;;;;;19.90;10.57;;;;;;;5.39;91.59;96577.50;5057183;28;20197;-69
2021/04/25 04:51:53;;;;;;;19.43;8.73;;;;;;;5.43;89.49;96592.78;5057883;28;20278;-69
2021/04/25 04:54:19;;;;;;;21.20;9.10;;;;;;;5.51;88.40;96584.22;5057391;28;20208;-70
2021/04/25 04:56:45;;;;;;;18.03;8.87;;;;;;;5.47;89.36;96585.47;5056909;28;20200;-70
2021/04/25 04:59:11;;;;;;;20.53;10.00;;;;;;;5.51;90.54;96584.22;5057425;28;20217;-68
2021/04/25 05:01:37;;;;;;;19.43;9.03;;;;;;;5.55;90.59;96586.44;5057337;28;20224;-68
2021/04/25 05:04:04;;;;;;;17.47;8.47;;;;;;;5.64;90.01;96596.06;5057544;28;20265;-68
2021/04/25 05:06:30;;;;;;;21.27;10.13;;;;;;;5.77;89.80;96586.16;5056212;28;20218;-68
2021/04/25 05:08:56;;;;;;;21.60;9.20;;;;;;;5.78;89.40;96586.97;5057237;28;20256;-68
2021/04/25 05:11:22;;;;;;;17.83;9.43;;;;;;;5.89;89.86;96595.50;5057185;28;20204;-69
2021/04/25 05:13:48;;;;;;;18.50;9.10;;;;;;;5.90;90.18;96591.13;5057071;28;21119;-68
2021/04/25 05:16:14;;;;;;;22.03;10.00;;;;;;;5.96;90.22;96601.84;5056360;28;20211;-68
2021/04/25 05:18:42;;;;;;;25.90;11.10;;;;;;;6.05;90.23;96599.19;5057592;28;20733;-67
2021/04/25 05:21:09;;;;;;;27.57;12.03;;;;;;;6.19;90.50;96595.31;5053634;28;20224;-70
2021/04/25 05:23:35;;;;;;;25.63;10.73;;;;;;;6.22;91.00;96603.72;5057412;28;20686;-68
2021/04/25 05:26:01;;;;;;;21.03;10.60;;;;;;;6.30;92.14;96601.22;5056415;28;20291;-68
2021/04/25 05:28:27;;;;;;;30.00;12.73;;;;;;;6.34;91.38;96602.56;5057497;28;20990;-70
2021/04/25 05:30:53;;;;;;;22.77;12.20;;;;;;;6.43;91.68;96616.56;5056535;28;20299;-68
2021/04/25 05:33:19;;;;;;;25.83;12.60;;;;;;;6.50;92.46;96610.63;5056861;28;20239;-70
2021/04/25 05:35:45;;;;;;;31.17;13.27;;;;;;;6.43;92.22;96616.56;5056800;28;20204;-68
2021/04/25 05:38:13;;;;;;;26.97;12.07;;;;;;;6.57;91.38;96606.50;5056869;28;20266;-67
2021/04/25 05:40:39;;;;;;;24.73;12.77;;;;;;;6.62;90.75;96622.59;5056259;28;20307;-68
2021/04/25 05:43:05;;;;;;;25.30;12.90;;;;;;;6.79;89.88;96613.97;5057497;28;20989;-69
2021/04/25 05:45:31;;;;;;;22.27;11.67;;;;;;;6.99;89.57;96611.09;5055566;28;20193;-67
2021/04/25 05:47:58;;;;;;;29.73;13.70;;;;;;;6.98;89.93;96624.38;5056995;28;20239;-67
2021/04/25 05:50:28;;;;;;;24.17;12.47;;;;;;;7.01;89.33;96624.88;5056499;28;20759;-68
2021/04/25 05:52:54;;;;;;;31.27;13.33;;;;;;;7.14;89.96;96628.00;5056748;28;20197;-67
2021/04/25 05:55:22;;;;;;;31.53;13.40;;;;;;;7.12;90.64;96632.53;5055817;28;20327;-69
2021/04/25 05:57:48;;;;;;;26.67;13.07;;;;;;;7.18;88.96;96626.72;5056636;28;20232;-68
2021/04/25 06:00:18;;;;;;;24.67;12.77;;;;;;;7.32;88.67;96629.66;5056675;28;20262;-69
2021/04/25 06:02:44;;;;;;;25.20;13.17;;;;;;;7.36;90.23;96625.78;5056860;28;20239;-69
2021/04/25 06:05:11;;;;;;;24.97;13.17;;;;;;;7.34;90.83;96634.75;5055697;28;20222;-68
2021/04/25 06:07:37;;;;;;;26.80;13.37;;;;;;;7.43;86.33;96631.25;5057276;28;20216;-67
2021/04/25 06:10:03;;;;;;;29.60;13.57;;;;;;;7.48;89.50;96629.81;5060527;28;20215;-69
2021/04/25 06:12:30;;;;;;;26.43;12.90;;;;;;;7.51;86.67;96628.69;5060388;28;21007;-69
2021/04/25 06:14:56;;;;;;;27.63;13.93;;;;;;;7.63;90.76;96628.34;5061179;28;20205;-68
2021/04/25 06:17:22;;;;;;;28.53;13.77;;;;;;;7.71;85.84;96630.22;5058647;28;20231;-67
2021/04/25 06:19:49;;;;;;;25.80;13.00;;;;;;;7.74;84.62;96630.75;5057381;28;20674;-67
2021/04/25 06:22:15;;;;;;;29.03;13.80;;;;;;;7.80;84.88;96639.81;5060679;28;20281;-67
2021/04/25 06:24:41;;;;;;;28.93;14.83;;;;;;;7.85;86.64;96634.94;5061462;28;20205;-69
2021/04/25 06:27:07;;;;;;;34.57;14.77;;;;;;;7.91;87.41;96640.41;5059430;28;20196;-68
2021/04/25 06:29:34;;;;;;;30.30;14.23;;;;;;;7.94;86.37;96642.72;5059964;28;20201;-67
2021/04/25 06:32:00;;;;;;;26.30;14.13;;;;;;;7.87;84.74;96650.38;5059343;28;20874;-70
2021/04/25 06:34:26;;;;;;;30.97;14.53;;;;;;;8.00;85.46;96647.38;5059519;28;21177;-68
2021/04/25 06:36:52;;;;;;;36.93;15.13;;;;;;;7.94;83.85;96646.19;5058927;28;20197;-68
2021/04/25 06:39:18;;;;;;;35.77;14.70;;;;;;;8.09;83.29;96644.63;5060352;28;20754;-67
2021/04/25 06:41:44;;;;;;;29.37;14.37;;;;;;;8.15;86.63;96651.94;5058468;28;20904;-68
2021/04/25 06:44:10;;;;;;;34.87;14.73;;;;;;;8.20;81.06;96652.31;5058987;28;21315;-69
2021/04/25 06:46:37;;;;;;;31.83;14.23;;;;;;;8.26;83.17;96651.72;5058438;28;20301;-67
2021/04/25 06:49:03;;;;;;;29.00;14.50;;;;;;;8.29;80.87;96655.84;5059006;28;20274;-69
2021/04/25 06:51:29;;;;;;;25.50;14.27;;;;;;;8.44;84.63;96649.88;5056585;28;20204;-68
2021/04/25 06:53:56;;;;;;;34.37;14.70;;;;;;;8.32;82.00;96652.91;5060245;28;20726;-67
2021/04/25 06:56:22;;;;;;;28.37;14.30;;;;;;;8.53;82.31;96652.41;5057918;28;20662;-70
2021/04/25 06:58:47;;;;;;;27.27;13.80;;;;;;;8.52;79.44;96661.25;5058959;28;20247;-68
2021/04/25 07:01:14;;;;;;;29.20;14.80;;;;;;;8.37;81.35;96655.91;5059904;28;20354;-68
2021/04/25 07:03:40;;;;;;;31.60;14.53;;;;;;;8.45;80.85;96651.50;5060004;28;20200;-68
2021/04/25 07:06:07;;;;;;;28.83;14.53;;;;;;;8.65;82.10;96659.03;5058983;28;20580;-68
2021/04/25 07:08:33;;;;;;;32.13;14.97;;;;;;;8.70;80.63;96662.00;5059254;28;20227;-67
2021/04/25 07:10:59;;;;;;;28.57;15.10;;;;;;;8.89;82.44;96664.41;5059074;28;20212;-68
2021/04/25 07:13:25;;;;;;;33.33;15.57;;;;;;;8.94;81.06;96656.91;5059808;28;20345;-70
2021/04/25 07:15:51;;;;;;;29.50;14.90;;;;;;;9.00;79.24;96658.06;5058178;28;20209;-67
2021/04/25 07:18:17;;;;;;;33.23;15.47;;;;;;;9.02;79.13;96664.81;5059405;28;20212;-68
2021/04/25 07:20:44;;;;;;;30.27;15.10;;;;;;;9.21;78.60;96656.69;5058846;28;20206;-69
2021/04/25 07:23:11;;;;;;;28.73;15.83;;;;;;;9.15;78.32;96658.16;5059274;28;20224;-67
2021/04/25 07:25:37;;;;;;;27.77;14.67;;;;;;;9.12;78.43;96661.06;5058270;28;20204;-67
2021/04/25 07:28:03;;;;;;;26.63;15.80;;;;;;;9.26;76.85;96660.47;5059448;28;20223;-69
2021/04/25 07:30:29;;;;;;;29.20;15.07;;;;;;;9.48;76.80;96656.44;5058179;28;20208;-69
2021/04/25 07:32:55;;;;;;;28.57;15.00;;;;;;;9.61;77.52;96651.53;5059740;28;20203;-68
2021/04/25 07:35:21;;;;;;;30.67;15.73;;;;;;;9.80;78.22;96650.28;5058469;28;20208;-68
2021/04/25 07:37:49;;;;;;;34.17;16.43;;;;;;;9.89;79.93;96654.56;5059593;28;20811;-67
2021/04/25 07:40:16;;;;;;;32.07;15.83;;;;;;;9.94;78.79;96654.06;5058797;28;20208;-68
2021/04/25 07:42:42;;;;;;;30.83;15.87;;;;;;;9.94;75.22;96657.53;5055712;28;20725;-69
2021/04/25 07:45:12;;;;;;;25.93;14.83;;;;;;;9.93;72.83;96660.34;5058977;28;20204;-69
2021/04/25 07:47:38;;;;;;;29.33;16.60;;;;;;;10.05;76.14;96654.59;5058657;28;20224;-67
2021/04/25 07:50:05;;;;;;;34.57;16.37;;;;;;;10.17;75.11;96661.22;5058575;28;20204;-68
2021/04/25 07:52:31;;;;;;;28.50;15.33;;;;;;;10.08;72.23;96656.94;5058296;28;20196;-69
2021/04/25 07:54:58;;;;;;;30.00;15.83;;;;;;;10.06;72.51;96656.25;5058671;28;20204;-67
2021/04/25 07:57:24;;;;;;;26.00;14.93;;;;;;;10.26;71.48;96654.97;5057967;28;20221;-70
2021/04/25 07:59:50;;;;;;;29.13;15.93;;;;;;;10.32;75.10;96659.56;5057862;28;20216;-68
2021/04/25 08:02:16;;;;;;;28.87;15.37;;;;;;;10.47;72.23;96652.63;5057695;28;20688;-68
2021/04/25 08:04:42;;;;;;;27.83;14.80;;;;;;;10.45;72.04;96657.22;5057929;28;20320;-70
2021/04/25 08:07:08;;;;;;;27.23;14.93;;;;;;;10.59;70.23;96648.66;5057616;28;21113;-67
2021/04/25 08:09:34;;;;;;;28.53;15.20;;;;;;;10.50;68.43;96652.28;5059190;28;20211;-68
2021/04/25 08:12:03;;;;;;;31.83;16.37;;;;;;;10.55;71.65;96650.81;5058354;28;20209;-68
2021/04/25 08:14:29;;;;;;;30.03;15.13;;;;;;;10.62;67.69;96649.16;5058718;28;20212;-68
2021/04/25 08:16:55;;;;;;;33.23;15.37;;;;;;;10.49;70.33;96650.66;5057685;28;20240;-69
2021/04/25 08:19:21;;;;;;;30.00;15.50;;;;;;;10.64;68.94;96648.97;5058111;28;20306;-68
2021/04/25 08:21:46;;;;;;;30.83;15.57;;;;;;;10.83;71.00;96657.34;5056671;28;20701;-68
2021/04/25 08:24:12;;;;;;;25.40;14.57;;;;;;;10.84;68.65;96645.00;5058006;28;20681;-70
2021/04/25 08:26:39;;;;;;;27.33;14.60;;;;;;;10.94;72.32;96649.09;5056221;28;20228;-67
2021/04/25 08:29:06;;;;;;;25.87;14.00;;;;;;;11.19;68.00;96651.47;5058162;28;20220;-68
2021/04/25 08:31:32;;;;;;;35.73;14.90;;;;;;;11.13;67.49;96654.78;5058488;28;21315;-68
2021/04/25 08:33:58;;;;;;;27.00;13.67;;;;;;;11.24;68.47;96649.16;5057016;28;20287;-70
2021/04/25 08:36:24;;;;;;;30.67;13.73;;;;;;;10.95;67.27;96648.91;5057379;28;20201;-69
2021/04/25 08:38:50;;;;;;;25.00;13.83;;;;;;;11.27;68.28;96655.91;5058420;28;20260;-67
2021/04/25 08:41:17;;;;;;;26.40;14.17;;;;;;;11.38;68.90;96651.06;5053899;28;20570;-68
2021/04/25 08:43:44;;;;;;;23.97;13.10;;;;;;;11.48;66.97;96649.06;5058314;28;20211;-69
2021/04/25 08:46:13;;;;;;;24.47;12.53;;;;;;;11.55;65.83;96641.28;5058050;28;20249;-67
2021/04/25 08:48:40;;;;;;;26.90;13.57;;;;;;;11.69;68.37;96650.09;5057048;28;20718;-67
2021/04/25 08:51:06;;;;;;;26.33;13.50;;;;;;;11.63;64.32;96649.97;5057168;28;20646;-70
2021/04/25 08:53:32;;;;;;;23.43;13.30;;;;;;;11.96;70.20;96646.94;5058337;28;20201;-69
2021/04/25 08:55:58;;;;;;;25.23;13.87;;;;;;;12.24;67.02;96646.28;5057529;28;20615;-67
2021/04/25 08:58:25;;;;;;;23.97;13.00;;;;;;;12.38;65.61;96642.81;5057435;28;20259;-68
2021/04/25 09:00:51;;;;;;;24.73;11.73;;;;;;;12.52;66.85;96647.34;5058340;28;20278;-67
2021/04/25 09:03:18;;;;;;;22.70;12.00;;;;;;;12.49;62.98;96645.06;5057400;28;20733;-68
2021/04/25 09:05:44;;;;;;;21.65;12.05;;;;;;;12.31;66.65;96647.19;5055330;28;20208;-67
2021/04/25 09:08:11;;;;;;;24.90;12.00;;;;;;;12.16;64.66;96638.38;5057065;28;20279;-68
2021/04/25 09:10:39;;;;;;;24.73;11.95;;;;;;;12.44;63.05;96638.66;5047349;28;20219;-67
2021/04/25 09:13:17;;;;;;;23.13;12.02;;;;;;;12.25;61.72;96641.78;5057325;28;20205;-68
2021/04/25 09:15:44;;;;;;;22.43;12.63;;;;;;;12.20;65.31;96634.38;5056603;28;20208;-67
2021/04/25 09:18:10;;;;;;;30.88;13.15;;;;;;;12.49;66.99;96633.69;5057951;28;20828;-68
2021/04/25 09:20:44;;;;;;;26.20;13.10;;;;;;;12.46;63.65;96634.84;5057594;28;20212;-67
2021/04/25 09:23:11;;;;;;;23.17;12.50;;;;;;;12.69;62.25;96626.84;5057574;28;20258;-68
2021/04/25 09:25:38;;;;;;;25.25;13.02;;;;;;;12.90;63.30;96628.63;5056297;28;20200;-68
2021/04/25 09:28:12;;;;;;;20.90;11.70;;;;;;;12.90;60.59;96622.53;5056108;28;20220;-67
2021/04/25 09:30:38;;;;;;;21.80;10.82;;;;;;;12.64;60.96;96622.13;5055755;28;20258;-69
2021/04/25 09:33:08;;;;;;;23.52;11.48;;;;;;;12.75;62.77;96615.56;5055669;28;20200;-67
2021/04/25 09:35:34;;;;;;;21.58;10.70;;;;;;;12.75;61.52;96624.31;5054407;28;20669;-67
2021/04/25 09:38:10;;;;;;;20.35;10.88;;;;;;;12.30;61.85;96623.59;5055402;28;20220;-67
2021/04/25 09:40:42;;;;;;;24.13;10.50;;;;;;;12.42;61.84;96628.28;5054547;28;20200;-70
2021/04/25 09:43:09;;;;;;;26.92;11.75;;;;;;;12.51;64.13;96636.94;5051638;28;20248;-66
2021/04/25 09:45:37;;;;;;;24.45;10.18;;;;;;;12.56;58.86;96624.81;5055102;28;20208;-69
2021/04/25 09:48:19;;;;;;;21.08;10.70;;;;;;;12.72;62.77;96622.03;5055407;28;20220;-68
2021/04/25 09:50:46;;;;;;;22.73;11.57;;;;;;;13.12;60.59;96618.97;5056138;28;20250;-69
2021/04/25 09:53:17;;;;;;;21.60;11.15;;;;;;;13.64;61.53;96617.81;5056300;28;20279;-69
2021/04/25 09:55:43;;;;;;;20.38;10.25;;;;;;;13.62;58.18;96614.50;5056545;28;20216;-67
2021/04/25 09:58:11;;;;;;;18.77;10.02;;;;;;;13.42;54.89;96630.16;5057858;28;20770;-66
2021/04/25 10:00:38;;;;;;;17.40;9.07;;;;;;;13.73;59.05;96627.28;5057351;28;20200;-66
2021/04/25 10:03:09;;;;;;;23.95;10.63;;;;;;;13.72;58.40;96615.88;5056896;28;20285;-69
2021/04/25 10:05:35;;;;;;;23.27;10.27;;;;;;;14.03;58.18;96621.72;5056035;28;20454;-67
2021/04/25 10:08:01;;;;;;;19.27;9.90;;;;;;;13.98;54.98;96622.25;5057160;28;20646;-66
2021/04/25 10:10:28;;;;;;;21.10;11.07;;;;;;;13.32;55.92;96625.38;5056539;28;20204;-67
2021/04/25 10:12:55;;;;;;;17.23;10.68;;;;;;;13.24;57.17;96625.44;5056327;28;20209;-67
2021/04/25 10:15:22;;;;;;;18.63;9.95;;;;;;;13.87;56.00;96624.59;5055987;28;20211;-70
2021/04/25 10:17:50;;;;;;;22.65;10.75;;;;;;;13.91;53.33;96620.53;5057039;28;20221;-67
2021/04/25 10:20:17;;;;;;;20.35;10.43;;;;;;;13.73;54.85;96622.00;5056248;28;20197;-68
2021/04/25 10:22:46;;;;;;;19.45;9.93;;;;;;;13.80;55.18;96614.94;5056942;28;20281;-66
2021/04/25 10:25:15;;;;;;;18.83;9.93;;;;;;;13.87;56.35;96613.19;5056164;28;20607;-70
2021/04/25 10:27:45;;;;;;;17.20;9.65;;;;;;;13.93;53.69;96615.91;5056208;28;20227;-68
2021/04/25 10:30:14;;;;;;;18.30;10.55;;;;;;;14.34;56.18;96606.34;5057191;28;20569;-67
2021/04/25 10:32:43;;;;;;;18.63;10.43;;;;;;;14.59;55.46;96604.88;5056856;28;20208;-69
2021/04/25 10:35:14;;;;;;;16.30;9.55;;;;;;;14.33;52.80;96609.97;5056582;28;20204;-69
2021/04/25 10:37:40;;;;;;;20.15;9.73;;;;;;;14.54;51.88;96608.13;5056231;28;20224;-69
2021/04/25 10:40:23;;;;;;;18.33;9.38;;;;;;;14.16;53.94;96608.63;5057055;28;20215;-67
2021/04/25 10:42:56;;;;;;;16.23;9.77;;;;;;;14.46;53.05;96610.09;5054298;28;20311;-67
2021/04/25 10:45:31;;;;;;;15.45;8.90;;;;;;;14.43;54.30;96606.00;5055809;28;20200;-69
2021/04/25 10:48:32;;;;;;;18.55;8.88;;;;;;;14.37;49.42;96608.59;5056614;28;20220;-67
2021/04/25 10:51:05;;;;;;;19.20;9.00;;;;;;;14.51;49.92;96611.19;5056786;28;20295;-67
2021/04/25 10:53:35;;;;;;;14.65;8.77;;;;;;;14.42;51.14;96619.44;5056502;28;20192;-69
2021/04/25 10:56:32;;;;;;;18.08;9.05;;;;;;;14.95;55.97;96609.03;5059472;28;20204;-67
2021/04/25 10:59:23;;;;;;;20.15;8.98;;;;;;;15.11;55.26;96600.75;5059910;28;20310;-68
2021/04/25 11:01:49;;;;;;;19.95;8.80;;;;;;;15.05;51.68;96612.19;5047019;28;21181;-68
2021/04/25 11:04:53;;;;;;;14.60;8.80;;;;;;;15.54;48.06;96608.34;5059763;28;20205;-68
2021/04/25 11:07:42;;;;;;;15.60;8.20;;;;;;;15.29;46.05;96593.97;5058227;28;20228;-69
2021/04/25 11:10:09;;;;;;;14.68;7.85;;;;;;;15.30;46.94;96603.56;5059293;28;20207;-69
2021/04/25 11:12:46;;;;;;;16.58;8.57;;;;;;;15.47;47.75;96596.91;5059115;28;20554;-68
2021/04/25 11:15:50;;;;;;;13.88;7.82;;;;;;;15.82;48.26;96595.78;5058277;28;20203;-68
2021/04/25 11:18:42;;;;;;;16.50;8.38;;;;;;;15.18;47.79;96605.09;5059018;28;20314;-69
2021/04/25 11:21:55;;;;;;;16.38;8.15;;;;;;;15.19;45.37;96598.78;5059112;28;20840;-69
2021/04/25 11:24:33;;;;;;;13.15;8.15;;;;;;;15.68;49.06;96599.41;5058903;28;20208;-68
2021/04/25 11:27:00;;;;;;;13.20;8.20;;;;;;;15.15;47.43;96594.88;5056101;28;20216;-69
2021/04/25 11:30:01;;;;;;;15.00;8.15;;;;;;;15.20;48.07;96594.25;5057654;28;21633;-70